Arboga, California
Current Conditions -  °F | °C
As of 1:53 PM on Friday 24 Oct 2014 (Local Time) from KMYV Reporting Station
NA  
Wind Chill: 74°   Ceiling: NA
Heat Index: 74°   Visibility: 10mi
Dew Point: 51°   Wind: 5mph
Humidity: 45%   Direction: NA
Pressure: 29.9"   Gusts: NA
Location:  39.0904°N, 121.552°W
Report Text: KMYV 242053Z AUTO VRB04KT 10SM 23/11 A2990 RMK AO2 SLP130 T02330106 58027 $
Loading
Personal Weather Stations






























Interactive Weather Map
Tropical Storm Tracking
New forecast layout! Learn more

10-Day Weather Forecast

Advertisements
Track Severe Weather on mobile